sensor_id;sensor_type;location;lat;lon;timestamp;P1;durP1;ratioP1;P2;durP2;ratioP2
79438;SDS011;68889;48.232;10.110;2023-05-09T00:02:24;11.85;;;8.65;;
79438;SDS011;68889;48.232;10.110;2023-05-09T00:04:50;11.93;;;8.13;;
79438;SDS011;68889;48.232;10.110;2023-05-09T00:07:15;11.80;;;7.40;;
79438;SDS011;68889;48.232;10.110;2023-05-09T00:09:41;9.75;;;7.75;;
79438;SDS011;68889;48.232;10.110;2023-05-09T00:12:07;11.05;;;7.78;;
79438;SDS011;68889;48.232;10.110;2023-05-09T00:14:33;12.20;;;9.30;;
79438;SDS011;68889;48.232;10.110;2023-05-09T00:16:58;9.85;;;8.10;;
79438;SDS011;68889;48.232;10.110;2023-05-09T00:19:24;9.02;;;7.03;;
79438;SDS011;68889;48.232;10.110;2023-05-09T00:21:50;9.95;;;8.38;;
79438;SDS011;68889;48.232;10.110;2023-05-09T00:24:16;11.38;;;8.30;;
79438;SDS011;68889;48.232;10.110;2023-05-09T00:26:41;13.13;;;7.97;;
79438;SDS011;68889;48.232;10.110;2023-05-09T00:29:07;11.57;;;8.40;;
79438;SDS011;68889;48.232;10.110;2023-05-09T00:31:32;10.13;;;7.93;;
79438;SDS011;68889;48.232;10.110;2023-05-09T00:33:58;9.60;;;7.40;;
79438;SDS011;68889;48.232;10.110;2023-05-09T00:36:23;13.23;;;10.75;;
79438;SDS011;68889;48.232;10.110;2023-05-09T00:38:49;14.07;;;11.70;;
79438;SDS011;68889;48.232;10.110;2023-05-09T00:41:14;17.27;;;12.25;;
79438;SDS011;68889;48.232;10.110;2023-05-09T00:43:40;18.63;;;13.18;;
79438;SDS011;68889;48.232;10.110;2023-05-09T00:46:05;20.08;;;13.32;;
79438;SDS011;68889;48.232;10.110;2023-05-09T00:48:31;12.43;;;10.52;;
79438;SDS011;68889;48.232;10.110;2023-05-09T00:50:57;15.57;;;11.52;;
79438;SDS011;68889;48.232;10.110;2023-05-09T00:53:23;11.20;;;8.77;;
79438;SDS011;68889;48.232;10.110;2023-05-09T00:55:49;16.83;;;10.68;;
79438;SDS011;68889;48.232;10.110;2023-05-09T00:58:15;13.15;;;9.95;;
79438;SDS011;68889;48.232;10.110;2023-05-09T01:00:41;14.60;;;11.30;;
79438;SDS011;68889;48.232;10.110;2023-05-09T01:03:07;15.50;;;11.38;;
79438;SDS011;68889;48.232;10.110;2023-05-09T01:05:37;13.60;;;8.77;;
79438;SDS011;68889;48.232;10.110;2023-05-09T01:08:30;12.00;;;9.07;;
79438;SDS011;68889;48.232;10.110;2023-05-09T01:11:28;14.20;;;7.72;;
79438;SDS011;68889;48.232;10.110;2023-05-09T01:17:26;18.95;;;9.48;;
79438;SDS011;68889;48.232;10.110;2023-05-09T01:19:56;12.32;;;8.93;;
79438;SDS011;68889;48.232;10.110;2023-05-09T01:22:31;9.48;;;7.25;;
79438;SDS011;68889;48.232;10.110;2023-05-09T01:25:35;15.02;;;10.90;;
79438;SDS011;68889;48.232;10.110;2023-05-09T01:28:10;11.75;;;9.30;;
79438;SDS011;68889;48.232;10.110;2023-05-09T01:33:19;11.10;;;9.00;;
79438;SDS011;68889;48.232;10.110;2023-05-09T01:35:47;10.93;;;8.93;;
79438;SDS011;68889;48.232;10.110;2023-05-09T01:38:17;11.23;;;7.97;;
79438;SDS011;68889;48.232;10.110;2023-05-09T01:40:46;10.70;;;7.80;;
79438;SDS011;68889;48.232;10.110;2023-05-09T01:43:16;11.35;;;8.77;;
79438;SDS011;68889;48.232;10.110;2023-05-09T01:45:43;10.70;;;8.05;;
79438;SDS011;68889;48.232;10.110;2023-05-09T01:48:10;11.05;;;8.82;;
79438;SDS011;68889;48.232;10.110;2023-05-09T01:50:37;12.57;;;9.80;;
79438;SDS011;68889;48.232;10.110;2023-05-09T01:53:05;11.05;;;7.82;;
79438;SDS011;68889;48.232;10.110;2023-05-09T01:55:32;8.73;;;5.68;;
79438;SDS011;68889;48.232;10.110;2023-05-09T01:58:00;10.95;;;7.82;;
79438;SDS011;68889;48.232;10.110;2023-05-09T02:00:28;8.15;;;6.25;;
79438;SDS011;68889;48.232;10.110;2023-05-09T02:02:55;8.00;;;6.25;;
79438;SDS011;68889;48.232;10.110;2023-05-09T02:05:23;8.90;;;7.20;;
79438;SDS011;68889;48.232;10.110;2023-05-09T02:07:53;10.45;;;6.85;;
79438;SDS011;68889;48.232;10.110;2023-05-09T02:10:23;8.57;;;7.50;;
79438;SDS011;68889;48.232;10.110;2023-05-09T02:12:50;11.35;;;7.40;;
79438;SDS011;68889;48.232;10.110;2023-05-09T02:15:16;12.50;;;7.65;;
79438;SDS011;68889;48.232;10.110;2023-05-09T02:17:42;8.30;;;6.50;;
79438;SDS011;68889;48.232;10.110;2023-05-09T02:20:08;10.48;;;7.65;;
79438;SDS011;68889;48.232;10.110;2023-05-09T02:22:35;10.60;;;7.95;;
79438;SDS011;68889;48.232;10.110;2023-05-09T02:25:02;10.82;;;7.43;;
79438;SDS011;68889;48.232;10.110;2023-05-09T02:27:29;10.57;;;8.27;;
79438;SDS011;68889;48.232;10.110;2023-05-09T02:29:57;9.75;;;7.43;;
79438;SDS011;68889;48.232;10.110;2023-05-09T02:32:27;12.23;;;8.52;;
79438;SDS011;68889;48.232;10.110;2023-05-09T02:34:56;9.82;;;7.43;;
79438;SDS011;68889;48.232;10.110;2023-05-09T02:40:08;17.52;;;11.20;;
79438;SDS011;68889;48.232;10.110;2023-05-09T02:42:34;18.95;;;12.13;;
79438;SDS011;68889;48.232;10.110;2023-05-09T02:45:00;18.95;;;12.40;;
79438;SDS011;68889;48.232;10.110;2023-05-09T02:47:26;23.60;;;13.07;;
79438;SDS011;68889;48.232;10.110;2023-05-09T02:49:51;19.42;;;12.65;;
79438;SDS011;68889;48.232;10.110;2023-05-09T02:52:17;19.15;;;11.88;;
79438;SDS011;68889;48.232;10.110;2023-05-09T02:54:42;18.20;;;10.45;;
79438;SDS011;68889;48.232;10.110;2023-05-09T02:57:08;21.02;;;13.18;;
79438;SDS011;68889;48.232;10.110;2023-05-09T02:59:34;25.55;;;13.52;;
79438;SDS011;68889;48.232;10.110;2023-05-09T03:01:59;19.80;;;12.35;;
79438;SDS011;68889;48.232;10.110;2023-05-09T03:04:25;21.83;;;12.80;;
79438;SDS011;68889;48.232;10.110;2023-05-09T03:06:51;18.65;;;12.60;;
79438;SDS011;68889;48.232;10.110;2023-05-09T03:09:16;18.17;;;11.52;;
79438;SDS011;68889;48.232;10.110;2023-05-09T03:11:42;23.63;;;15.02;;
79438;SDS011;68889;48.232;10.110;2023-05-09T03:14:08;19.88;;;11.82;;
79438;SDS011;68889;48.232;10.110;2023-05-09T03:19:00;22.08;;;14.23;;
79438;SDS011;68889;48.232;10.110;2023-05-09T03:21:25;23.20;;;13.85;;
79438;SDS011;68889;48.232;10.110;2023-05-09T03:23:51;24.85;;;14.93;;
79438;SDS011;68889;48.232;10.110;2023-05-09T03:26:16;27.70;;;13.85;;
79438;SDS011;68889;48.232;10.110;2023-05-09T03:28:42;27.48;;;15.25;;
79438;SDS011;68889;48.232;10.110;2023-05-09T03:31:07;16.45;;;11.88;;
79438;SDS011;68889;48.232;10.110;2023-05-09T03:33:33;24.27;;;14.65;;
79438;SDS011;68889;48.232;10.110;2023-05-09T03:35:59;22.52;;;14.45;;
79438;SDS011;68889;48.232;10.110;2023-05-09T03:38:24;26.23;;;14.95;;
79438;SDS011;68889;48.232;10.110;2023-05-09T03:40:50;25.15;;;14.32;;
79438;SDS011;68889;48.232;10.110;2023-05-09T03:43:17;15.57;;;10.52;;
79438;SDS011;68889;48.232;10.110;2023-05-09T03:45:43;28.30;;;16.65;;
79438;SDS011;68889;48.232;10.110;2023-05-09T03:48:08;25.52;;;15.35;;
79438;SDS011;68889;48.232;10.110;2023-05-09T03:50:35;27.90;;;16.05;;
79438;SDS011;68889;48.232;10.110;2023-05-09T03:53:00;25.95;;;15.60;;
79438;SDS011;68889;48.232;10.110;2023-05-09T03:55:26;20.05;;;13.50;;
79438;SDS011;68889;48.232;10.110;2023-05-09T03:57:52;20.42;;;14.07;;
79438;SDS011;68889;48.232;10.110;2023-05-09T04:00:18;19.50;;;13.65;;
79438;SDS011;68889;48.232;10.110;2023-05-09T04:02:45;25.73;;;14.02;;
79438;SDS011;68889;48.232;10.110;2023-05-09T04:05:11;25.75;;;15.05;;
79438;SDS011;68889;48.232;10.110;2023-05-09T04:07:37;21.25;;;12.75;;
79438;SDS011;68889;48.232;10.110;2023-05-09T04:10:03;24.55;;;15.68;;
79438;SDS011;68889;48.232;10.110;2023-05-09T04:12:29;20.80;;;15.02;;
79438;SDS011;68889;48.232;10.110;2023-05-09T04:14:54;25.38;;;16.42;;
79438;SDS011;68889;48.232;10.110;2023-05-09T04:17:20;22.15;;;14.48;;
79438;SDS011;68889;48.232;10.110;2023-05-09T04:19:45;21.10;;;13.48;;
79438;SDS011;68889;48.232;10.110;2023-05-09T04:22:11;28.33;;;16.80;;
79438;SDS011;68889;48.232;10.110;2023-05-09T04:24:36;30.10;;;17.38;;
79438;SDS011;68889;48.232;10.110;2023-05-09T04:27:02;26.75;;;16.67;;
79438;SDS011;68889;48.232;10.110;2023-05-09T04:29:27;20.33;;;12.90;;
79438;SDS011;68889;48.232;10.110;2023-05-09T04:31:53;23.80;;;15.65;;
79438;SDS011;68889;48.232;10.110;2023-05-09T04:34:19;24.73;;;16.20;;
79438;SDS011;68889;48.232;10.110;2023-05-09T04:36:44;23.40;;;15.10;;
79438;SDS011;68889;48.232;10.110;2023-05-09T04:39:10;21.35;;;14.13;;
79438;SDS011;68889;48.232;10.110;2023-05-09T04:44:02;23.15;;;13.65;;
79438;SDS011;68889;48.232;10.110;2023-05-09T04:46:27;29.23;;;16.23;;
79438;SDS011;68889;48.232;10.110;2023-05-09T04:48:53;23.20;;;14.52;;
79438;SDS011;68889;48.232;10.110;2023-05-09T04:51:18;24.02;;;16.08;;
79438;SDS011;68889;48.232;10.110;2023-05-09T04:53:44;24.30;;;15.27;;
79438;SDS011;68889;48.232;10.110;2023-05-09T04:56:10;24.60;;;16.83;;
79438;SDS011;68889;48.232;10.110;2023-05-09T04:58:35;27.77;;;16.83;;
79438;SDS011;68889;48.232;10.110;2023-05-09T05:01:03;28.48;;;16.65;;
79438;SDS011;68889;48.232;10.110;2023-05-09T05:03:30;28.65;;;18.15;;
79438;SDS011;68889;48.232;10.110;2023-05-09T05:05:55;24.30;;;15.07;;
79438;SDS011;68889;48.232;10.110;2023-05-09T05:08:21;25.55;;;16.63;;
79438;SDS011;68889;48.232;10.110;2023-05-09T05:10:46;22.88;;;14.20;;
79438;SDS011;68889;48.232;10.110;2023-05-09T05:15:39;19.60;;;12.60;;
79438;SDS011;68889;48.232;10.110;2023-05-09T05:18:05;23.13;;;14.65;;
79438;SDS011;68889;48.232;10.110;2023-05-09T05:20:30;26.58;;;16.50;;
79438;SDS011;68889;48.232;10.110;2023-05-09T05:22:56;23.58;;;15.90;;
79438;SDS011;68889;48.232;10.110;2023-05-09T05:25:22;19.23;;;12.75;;
79438;SDS011;68889;48.232;10.110;2023-05-09T05:27:48;25.00;;;15.68;;
79438;SDS011;68889;48.232;10.110;2023-05-09T05:30:13;22.63;;;15.48;;
79438;SDS011;68889;48.232;10.110;2023-05-09T05:32:39;23.27;;;15.00;;
79438;SDS011;68889;48.232;10.110;2023-05-09T05:35:05;27.70;;;16.13;;
79438;SDS011;68889;48.232;10.110;2023-05-09T05:37:31;22.75;;;14.68;;
79438;SDS011;68889;48.232;10.110;2023-05-09T05:39:57;22.48;;;14.38;;
79438;SDS011;68889;48.232;10.110;2023-05-09T05:42:22;21.63;;;13.77;;
79438;SDS011;68889;48.232;10.110;2023-05-09T05:44:48;24.27;;;15.00;;
79438;SDS011;68889;48.232;10.110;2023-05-09T05:47:13;25.20;;;15.57;;
79438;SDS011;68889;48.232;10.110;2023-05-09T05:49:39;23.98;;;15.27;;
79438;SDS011;68889;48.232;10.110;2023-05-09T05:52:04;27.58;;;15.93;;
79438;SDS011;68889;48.232;10.110;2023-05-09T05:54:30;23.95;;;15.88;;
79438;SDS011;68889;48.232;10.110;2023-05-09T05:56:55;25.30;;;15.27;;
79438;SDS011;68889;48.232;10.110;2023-05-09T05:59:21;26.98;;;16.10;;
79438;SDS011;68889;48.232;10.110;2023-05-09T06:01:46;28.27;;;17.13;;
79438;SDS011;68889;48.232;10.110;2023-05-09T06:04:12;24.17;;;15.15;;
79438;SDS011;68889;48.232;10.110;2023-05-09T06:06:37;21.75;;;14.10;;
79438;SDS011;68889;48.232;10.110;2023-05-09T06:09:03;25.15;;;16.10;;
79438;SDS011;68889;48.232;10.110;2023-05-09T06:11:28;26.50;;;16.83;;
79438;SDS011;68889;48.232;10.110;2023-05-09T06:13:54;29.50;;;18.38;;
79438;SDS011;68889;48.232;10.110;2023-05-09T06:16:19;24.85;;;15.13;;
79438;SDS011;68889;48.232;10.110;2023-05-09T06:18:45;29.83;;;17.88;;
79438;SDS011;68889;48.232;10.110;2023-05-09T06:21:11;28.08;;;18.42;;
79438;SDS011;68889;48.232;10.110;2023-05-09T06:23:37;31.05;;;17.67;;
79438;SDS011;68889;48.232;10.110;2023-05-09T06:26:02;27.52;;;16.17;;
79438;SDS011;68889;48.232;10.110;2023-05-09T06:28:28;31.45;;;18.77;;
79438;SDS011;68889;48.232;10.110;2023-05-09T06:30:54;27.23;;;17.02;;
79438;SDS011;68889;48.232;10.110;2023-05-09T06:33:19;34.15;;;19.40;;
79438;SDS011;68889;48.232;10.110;2023-05-09T06:35:45;30.63;;;18.83;;
79438;SDS011;68889;48.232;10.110;2023-05-09T06:38:10;36.63;;;20.05;;
79438;SDS011;68889;48.232;10.110;2023-05-09T06:40:36;35.72;;;22.35;;
79438;SDS011;68889;48.232;10.110;2023-05-09T06:43:01;29.15;;;18.75;;
79438;SDS011;68889;48.232;10.110;2023-05-09T06:45:27;27.80;;;16.98;;
79438;SDS011;68889;48.232;10.110;2023-05-09T06:47:54;32.67;;;19.60;;
79438;SDS011;68889;48.232;10.110;2023-05-09T06:50:20;31.42;;;18.77;;
79438;SDS011;68889;48.232;10.110;2023-05-09T06:52:45;28.35;;;16.15;;
79438;SDS011;68889;48.232;10.110;2023-05-09T06:55:11;33.70;;;20.80;;
79438;SDS011;68889;48.232;10.110;2023-05-09T06:57:37;30.30;;;17.60;;
79438;SDS011;68889;48.232;10.110;2023-05-09T07:00:04;30.38;;;17.98;;
79438;SDS011;68889;48.232;10.110;2023-05-09T07:02:30;30.52;;;18.17;;
79438;SDS011;68889;48.232;10.110;2023-05-09T07:04:56;28.67;;;17.33;;
79438;SDS011;68889;48.232;10.110;2023-05-09T07:07:21;26.45;;;16.27;;
79438;SDS011;68889;48.232;10.110;2023-05-09T07:09:47;30.70;;;18.20;;
79438;SDS011;68889;48.232;10.110;2023-05-09T07:12:12;32.40;;;18.52;;
79438;SDS011;68889;48.232;10.110;2023-05-09T07:14:38;28.23;;;18.08;;
79438;SDS011;68889;48.232;10.110;2023-05-09T07:17:05;26.08;;;16.13;;
79438;SDS011;68889;48.232;10.110;2023-05-09T07:19:32;25.98;;;17.85;;
79438;SDS011;68889;48.232;10.110;2023-05-09T07:21:58;23.85;;;16.05;;
79438;SDS011;68889;48.232;10.110;2023-05-09T07:24:23;22.20;;;14.80;;
79438;SDS011;68889;48.232;10.110;2023-05-09T07:26:49;27.90;;;18.98;;
79438;SDS011;68889;48.232;10.110;2023-05-09T07:29:14;26.77;;;17.40;;
79438;SDS011;68889;48.232;10.110;2023-05-09T07:31:41;27.15;;;17.10;;
79438;SDS011;68889;48.232;10.110;2023-05-09T07:34:06;27.48;;;17.63;;
79438;SDS011;68889;48.232;10.110;2023-05-09T07:36:32;26.98;;;16.65;;
79438;SDS011;68889;48.232;10.110;2023-05-09T07:38:58;25.98;;;16.27;;
79438;SDS011;68889;48.232;10.110;2023-05-09T07:41:24;23.58;;;15.27;;
79438;SDS011;68889;48.232;10.110;2023-05-09T07:43:50;25.73;;;17.27;;
79438;SDS011;68889;48.232;10.110;2023-05-09T07:46:16;23.77;;;15.77;;
79438;SDS011;68889;48.232;10.110;2023-05-09T07:48:41;26.27;;;17.08;;
79438;SDS011;68889;48.232;10.110;2023-05-09T07:51:07;24.40;;;16.75;;
79438;SDS011;68889;48.232;10.110;2023-05-09T07:53:32;20.95;;;14.80;;
79438;SDS011;68889;48.232;10.110;2023-05-09T07:55:58;26.88;;;17.05;;
79438;SDS011;68889;48.232;10.110;2023-05-09T07:58:24;25.90;;;16.92;;
79438;SDS011;68889;48.232;10.110;2023-05-09T08:00:50;22.80;;;14.60;;
79438;SDS011;68889;48.232;10.110;2023-05-09T08:03:15;21.60;;;15.32;;
79438;SDS011;68889;48.232;10.110;2023-05-09T08:05:41;25.92;;;17.38;;
79438;SDS011;68889;48.232;10.110;2023-05-09T08:08:06;26.77;;;16.52;;
79438;SDS011;68889;48.232;10.110;2023-05-09T08:10:32;25.77;;;17.83;;
79438;SDS011;68889;48.232;10.110;2023-05-09T08:12:57;25.27;;;17.55;;
79438;SDS011;68889;48.232;10.110;2023-05-09T08:15:23;22.42;;;14.93;;
79438;SDS011;68889;48.232;10.110;2023-05-09T08:17:48;22.40;;;15.52;;
79438;SDS011;68889;48.232;10.110;2023-05-09T08:20:14;21.23;;;14.20;;
79438;SDS011;68889;48.232;10.110;2023-05-09T08:22:40;24.40;;;16.88;;
79438;SDS011;68889;48.232;10.110;2023-05-09T08:25:06;23.92;;;16.15;;
79438;SDS011;68889;48.232;10.110;2023-05-09T08:29:57;24.88;;;16.38;;
79438;SDS011;68889;48.232;10.110;2023-05-09T08:32:23;24.23;;;16.05;;
79438;SDS011;68889;48.232;10.110;2023-05-09T08:34:49;26.20;;;17.40;;
79438;SDS011;68889;48.232;10.110;2023-05-09T08:37:14;25.05;;;16.92;;
79438;SDS011;68889;48.232;10.110;2023-05-09T08:39:40;24.33;;;17.42;;
79438;SDS011;68889;48.232;10.110;2023-05-09T08:42:06;24.40;;;17.02;;
79438;SDS011;68889;48.232;10.110;2023-05-09T08:44:33;24.42;;;16.50;;
79438;SDS011;68889;48.232;10.110;2023-05-09T08:46:59;24.83;;;16.75;;
79438;SDS011;68889;48.232;10.110;2023-05-09T08:49:26;22.35;;;15.77;;
79438;SDS011;68889;48.232;10.110;2023-05-09T08:51:52;22.35;;;15.05;;
79438;SDS011;68889;48.232;10.110;2023-05-09T08:54:18;26.02;;;17.00;;
79438;SDS011;68889;48.232;10.110;2023-05-09T08:56:45;28.73;;;18.42;;
79438;SDS011;68889;48.232;10.110;2023-05-09T08:59:11;23.48;;;15.02;;
79438;SDS011;68889;48.232;10.110;2023-05-09T09:01:38;27.48;;;17.88;;
79438;SDS011;68889;48.232;10.110;2023-05-09T09:04:07;23.52;;;16.60;;
79438;SDS011;68889;48.232;10.110;2023-05-09T09:06:33;24.95;;;17.30;;
79438;SDS011;68889;48.232;10.110;2023-05-09T09:09:00;27.63;;;17.70;;
79438;SDS011;68889;48.232;10.110;2023-05-09T09:11:29;25.08;;;16.77;;
79438;SDS011;68889;48.232;10.110;2023-05-09T09:13:55;25.40;;;18.13;;
79438;SDS011;68889;48.232;10.110;2023-05-09T09:16:25;24.83;;;16.95;;
79438;SDS011;68889;48.232;10.110;2023-05-09T09:18:53;19.90;;;15.32;;
79438;SDS011;68889;48.232;10.110;2023-05-09T09:21:20;19.75;;;14.00;;
79438;SDS011;68889;48.232;10.110;2023-05-09T09:23:47;22.25;;;15.95;;
79438;SDS011;68889;48.232;10.110;2023-05-09T09:26:13;20.27;;;16.08;;
79438;SDS011;68889;48.232;10.110;2023-05-09T09:28:40;21.77;;;16.20;;
79438;SDS011;68889;48.232;10.110;2023-05-09T09:31:19;17.85;;;14.43;;
79438;SDS011;68889;48.232;10.110;2023-05-09T09:34:00;18.30;;;12.75;;
79438;SDS011;68889;48.232;10.110;2023-05-09T09:36:27;21.40;;;14.90;;
79438;SDS011;68889;48.232;10.110;2023-05-09T09:38:57;18.10;;;13.30;;
79438;SDS011;68889;48.232;10.110;2023-05-09T09:44:16;17.35;;;12.60;;
79438;SDS011;68889;48.232;10.110;2023-05-09T09:46:44;18.42;;;13.80;;
79438;SDS011;68889;48.232;10.110;2023-05-09T09:49:18;20.30;;;14.13;;
79438;SDS011;68889;48.232;10.110;2023-05-09T09:51:44;18.85;;;13.75;;
79438;SDS011;68889;48.232;10.110;2023-05-09T09:54:20;17.38;;;12.65;;
79438;SDS011;68889;48.232;10.110;2023-05-09T09:56:46;17.85;;;12.98;;
79438;SDS011;68889;48.232;10.110;2023-05-09T10:04:23;20.20;;;13.85;;
79438;SDS011;68889;48.232;10.110;2023-05-09T10:06:51;16.52;;;12.40;;
79438;SDS011;68889;48.232;10.110;2023-05-09T10:09:19;18.00;;;12.43;;
79438;SDS011;68889;48.232;10.110;2023-05-09T10:11:46;16.38;;;12.07;;
79438;SDS011;68889;48.232;10.110;2023-05-09T10:14:15;16.63;;;12.88;;
79438;SDS011;68889;48.232;10.110;2023-05-09T10:16:42;16.40;;;11.98;;
79438;SDS011;68889;48.232;10.110;2023-05-09T10:19:08;15.40;;;11.27;;
79438;SDS011;68889;48.232;10.110;2023-05-09T10:21:36;15.75;;;11.55;;
79438;SDS011;68889;48.232;10.110;2023-05-09T10:24:03;15.93;;;12.30;;
79438;SDS011;68889;48.232;10.110;2023-05-09T10:28:56;13.93;;;11.45;;
79438;SDS011;68889;48.232;10.110;2023-05-09T10:31:24;15.82;;;11.30;;
79438;SDS011;68889;48.232;10.110;2023-05-09T10:33:51;17.80;;;12.18;;
79438;SDS011;68889;48.232;10.110;2023-05-09T10:36:20;13.60;;;11.38;;
79438;SDS011;68889;48.232;10.110;2023-05-09T10:38:48;13.18;;;10.82;;
79438;SDS011;68889;48.232;10.110;2023-05-09T10:41:15;12.43;;;10.45;;
79438;SDS011;68889;48.232;10.110;2023-05-09T10:43:41;12.52;;;9.90;;
79438;SDS011;68889;48.232;10.110;2023-05-09T10:46:08;11.23;;;9.05;;
79438;SDS011;68889;48.232;10.110;2023-05-09T10:48:33;14.43;;;12.00;;
79438;SDS011;68889;48.232;10.110;2023-05-09T10:51:01;12.98;;;10.23;;
79438;SDS011;68889;48.232;10.110;2023-05-09T10:56:08;10.65;;;9.05;;
79438;SDS011;68889;48.232;10.110;2023-05-09T10:58:46;11.30;;;9.07;;
79438;SDS011;68889;48.232;10.110;2023-05-09T11:01:12;10.85;;;8.68;;
79438;SDS011;68889;48.232;10.110;2023-05-09T11:03:56;11.57;;;9.18;;
79438;SDS011;68889;48.232;10.110;2023-05-09T11:09:28;8.63;;;7.20;;
79438;SDS011;68889;48.232;10.110;2023-05-09T11:12:14;9.65;;;7.93;;
79438;SDS011;68889;48.232;10.110;2023-05-09T11:14:42;9.55;;;7.80;;
79438;SDS011;68889;48.232;10.110;2023-05-09T11:17:30;9.50;;;7.28;;
79438;SDS011;68889;48.232;10.110;2023-05-09T11:20:03;8.57;;;6.93;;
79438;SDS011;68889;48.232;10.110;2023-05-09T11:22:30;7.68;;;6.45;;
79438;SDS011;68889;48.232;10.110;2023-05-09T11:25:06;9.10;;;7.45;;
79438;SDS011;68889;48.232;10.110;2023-05-09T11:30:04;8.63;;;7.40;;
79438;SDS011;68889;48.232;10.110;2023-05-09T11:32:31;9.75;;;7.65;;
79438;SDS011;68889;48.232;10.110;2023-05-09T11:35:19;7.05;;;6.35;;
79438;SDS011;68889;48.232;10.110;2023-05-09T11:37:50;7.13;;;6.30;;
79438;SDS011;68889;48.232;10.110;2023-05-09T11:40:19;8.13;;;6.38;;
79438;SDS011;68889;48.232;10.110;2023-05-09T11:42:49;7.50;;;5.78;;
79438;SDS011;68889;48.232;10.110;2023-05-09T11:45:17;6.78;;;6.07;;
79438;SDS011;68889;48.232;10.110;2023-05-09T11:50:11;7.60;;;6.80;;
79438;SDS011;68889;48.232;10.110;2023-05-09T11:52:37;7.85;;;6.63;;
79438;SDS011;68889;48.232;10.110;2023-05-09T11:55:07;8.07;;;6.47;;
79438;SDS011;68889;48.232;10.110;2023-05-09T11:57:34;5.15;;;4.53;;
79438;SDS011;68889;48.232;10.110;2023-05-09T12:00:04;7.10;;;6.25;;
79438;SDS011;68889;48.232;10.110;2023-05-09T12:02:30;5.28;;;4.78;;
79438;SDS011;68889;48.232;10.110;2023-05-09T12:04:56;6.75;;;5.38;;
79438;SDS011;68889;48.232;10.110;2023-05-09T12:07:30;6.22;;;5.28;;
79438;SDS011;68889;48.232;10.110;2023-05-09T12:09:56;6.20;;;5.53;;
79438;SDS011;68889;48.232;10.110;2023-05-09T12:12:21;5.53;;;4.90;;
79438;SDS011;68889;48.232;10.110;2023-05-09T12:14:47;6.15;;;5.40;;
79438;SDS011;68889;48.232;10.110;2023-05-09T12:17:12;6.55;;;5.88;;
79438;SDS011;68889;48.232;10.110;2023-05-09T12:19:38;7.60;;;6.70;;
79438;SDS011;68889;48.232;10.110;2023-05-09T12:22:03;7.38;;;6.57;;
79438;SDS011;68889;48.232;10.110;2023-05-09T12:24:30;6.25;;;5.53;;
79438;SDS011;68889;48.232;10.110;2023-05-09T12:26:59;6.35;;;5.72;;
79438;SDS011;68889;48.232;10.110;2023-05-09T12:29:25;6.55;;;5.55;;
79438;SDS011;68889;48.232;10.110;2023-05-09T12:31:52;5.22;;;4.45;;
79438;SDS011;68889;48.232;10.110;2023-05-09T12:34:17;6.43;;;5.80;;
79438;SDS011;68889;48.232;10.110;2023-05-09T12:36:44;6.57;;;5.80;;
79438;SDS011;68889;48.232;10.110;2023-05-09T12:39:17;5.65;;;4.90;;
79438;SDS011;68889;48.232;10.110;2023-05-09T12:41:49;5.50;;;5.00;;
79438;SDS011;68889;48.232;10.110;2023-05-09T12:44:23;6.07;;;5.13;;
79438;SDS011;68889;48.232;10.110;2023-05-09T12:46:57;5.95;;;5.35;;
79438;SDS011;68889;48.232;10.110;2023-05-09T12:49:24;5.80;;;5.10;;
79438;SDS011;68889;48.232;10.110;2023-05-09T12:51:50;5.80;;;5.20;;
79438;SDS011;68889;48.232;10.110;2023-05-09T12:54:24;7.82;;;5.18;;
79438;SDS011;68889;48.232;10.110;2023-05-09T12:56:51;5.30;;;4.80;;
79438;SDS011;68889;48.232;10.110;2023-05-09T12:59:21;5.00;;;4.50;;
79438;SDS011;68889;48.232;10.110;2023-05-09T13:02:06;6.07;;;5.47;;
79438;SDS011;68889;48.232;10.110;2023-05-09T13:04:31;5.28;;;4.78;;
79438;SDS011;68889;48.232;10.110;2023-05-09T13:06:57;4.47;;;3.85;;
79438;SDS011;68889;48.232;10.110;2023-05-09T13:09:26;3.97;;;3.58;;
79438;SDS011;68889;48.232;10.110;2023-05-09T13:11:52;5.40;;;4.50;;
79438;SDS011;68889;48.232;10.110;2023-05-09T13:14:19;5.65;;;4.47;;
79438;SDS011;68889;48.232;10.110;2023-05-09T13:16:45;5.57;;;4.80;;
79438;SDS011;68889;48.232;10.110;2023-05-09T13:19:11;6.18;;;5.20;;
79438;SDS011;68889;48.232;10.110;2023-05-09T13:21:37;5.63;;;5.10;;
79438;SDS011;68889;48.232;10.110;2023-05-09T13:24:03;6.18;;;5.00;;
79438;SDS011;68889;48.232;10.110;2023-05-09T13:26:29;4.25;;;3.85;;
79438;SDS011;68889;48.232;10.110;2023-05-09T13:28:55;5.30;;;4.80;;
79438;SDS011;68889;48.232;10.110;2023-05-09T13:31:21;4.18;;;3.78;;
79438;SDS011;68889;48.232;10.110;2023-05-09T13:33:47;4.40;;;4.00;;
79438;SDS011;68889;48.232;10.110;2023-05-09T13:36:15;7.20;;;4.63;;
79438;SDS011;68889;48.232;10.110;2023-05-09T13:38:41;5.00;;;3.75;;
79438;SDS011;68889;48.232;10.110;2023-05-09T13:41:09;4.30;;;3.55;;
79438;SDS011;68889;48.232;10.110;2023-05-09T13:43:35;4.60;;;3.70;;
79438;SDS011;68889;48.232;10.110;2023-05-09T13:46:01;4.38;;;3.97;;
79438;SDS011;68889;48.232;10.110;2023-05-09T13:48:27;5.13;;;3.80;;
79438;SDS011;68889;48.232;10.110;2023-05-09T13:50:52;3.97;;;3.58;;
79438;SDS011;68889;48.232;10.110;2023-05-09T13:53:18;4.88;;;3.15;;
79438;SDS011;68889;48.232;10.110;2023-05-09T13:55:44;4.07;;;3.30;;
79438;SDS011;68889;48.232;10.110;2023-05-09T13:58:10;4.25;;;3.85;;
79438;SDS011;68889;48.232;10.110;2023-05-09T14:00:36;4.13;;;3.20;;
79438;SDS011;68889;48.232;10.110;2023-05-09T14:03:02;3.25;;;2.90;;
79438;SDS011;68889;48.232;10.110;2023-05-09T14:05:28;2.75;;;2.50;;
79438;SDS011;68889;48.232;10.110;2023-05-09T14:07:55;3.08;;;2.50;;
79438;SDS011;68889;48.232;10.110;2023-05-09T14:10:21;3.83;;;3.25;;
79438;SDS011;68889;48.232;10.110;2023-05-09T14:12:48;3.22;;;2.80;;
79438;SDS011;68889;48.232;10.110;2023-05-09T14:15:13;3.20;;;2.90;;
79438;SDS011;68889;48.232;10.110;2023-05-09T14:17:40;3.30;;;2.67;;
79438;SDS011;68889;48.232;10.110;2023-05-09T14:20:07;3.03;;;2.72;;
79438;SDS011;68889;48.232;10.110;2023-05-09T14:22:33;3.63;;;2.53;;
79438;SDS011;68889;48.232;10.110;2023-05-09T14:24:58;2.95;;;2.15;;
79438;SDS011;68889;48.232;10.110;2023-05-09T14:27:24;2.92;;;2.60;;
79438;SDS011;68889;48.232;10.110;2023-05-09T14:29:50;3.85;;;2.70;;
79438;SDS011;68889;48.232;10.110;2023-05-09T14:32:15;2.97;;;2.67;;
79438;SDS011;68889;48.232;10.110;2023-05-09T14:34:41;3.42;;;2.53;;
79438;SDS011;68889;48.232;10.110;2023-05-09T14:37:07;3.03;;;2.30;;
79438;SDS011;68889;48.232;10.110;2023-05-09T14:39:38;2.92;;;2.70;;
79438;SDS011;68889;48.232;10.110;2023-05-09T14:42:05;2.78;;;2.50;;
79438;SDS011;68889;48.232;10.110;2023-05-09T14:44:32;2.47;;;2.20;;
79438;SDS011;68889;48.232;10.110;2023-05-09T14:46:57;2.50;;;2.10;;
79438;SDS011;68889;48.232;10.110;2023-05-09T14:49:23;2.55;;;2.25;;
79438;SDS011;68889;48.232;10.110;2023-05-09T14:51:49;2.25;;;2.05;;
79438;SDS011;68889;48.232;10.110;2023-05-09T14:54:14;2.50;;;2.10;;
79438;SDS011;68889;48.232;10.110;2023-05-09T14:56:40;2.67;;;2.28;;
79438;SDS011;68889;48.232;10.110;2023-05-09T14:59:05;3.50;;;2.30;;